Kelvedon Hatch, United Kingdom
Current Conditions -  °F | °C
As of 8:20 PM on Monday 22 Dec 2014 (Local Time) from EGSS Reporting Station
Scattered Clouds Scattered Clouds  
Wind Chill: 52°   Ceiling: Unl
Heat Index: 52°   Visibility: 6mi
Dew Point: 45°   Wind: 17mph
Humidity: 76%   Direction: 240°WSW
Pressure: 30"   Gusts: NA
Location:  51.67°N, 0.27°E
Report Text: EGSS 222020Z 24015KT 9999 SCT022 11/07 Q1016
Loading
Personal Weather Stations






























Interactive Weather Map New forecast layout! Learn more

10-Day Weather Forecast

Advertisements
Track Severe Weather on mobile